sensor_id;sensor_type;location;lat;lon;timestamp;temperature;humidity
32839;DHT22;19182;41.820;12.808;2023-01-24T00:01:12;4.00;99.90
32839;DHT22;19182;41.820;12.808;2023-01-24T00:03:37;4.10;99.90
32839;DHT22;19182;41.820;12.808;2023-01-24T00:06:03;4.00;99.90
32839;DHT22;19182;41.820;12.808;2023-01-24T00:08:31;4.00;99.90
32839;DHT22;19182;41.820;12.808;2023-01-24T00:11:08;4.00;99.90
32839;DHT22;19182;41.820;12.808;2023-01-24T00:13:35;4.00;99.90
32839;DHT22;19182;41.820;12.808;2023-01-24T00:16:21;4.10;99.90
32839;DHT22;19182;41.820;12.808;2023-01-24T00:18:51;4.10;99.90
32839;DHT22;19182;41.820;12.808;2023-01-24T00:21:18;4.20;99.90
32839;DHT22;19182;41.820;12.808;2023-01-24T00:23:46;4.10;99.90
32839;DHT22;19182;41.820;12.808;2023-01-24T00:26:13;4.10;99.90
32839;DHT22;19182;41.820;12.808;2023-01-24T00:28:39;4.10;99.90
32839;DHT22;19182;41.820;12.808;2023-01-24T00:31:05;4.10;99.90
32839;DHT22;19182;41.820;12.808;2023-01-24T00:33:31;4.20;99.90
32839;DHT22;19182;41.820;12.808;2023-01-24T00:35:57;4.20;99.90
32839;DHT22;19182;41.820;12.808;2023-01-24T00:38:23;4.10;99.90
32839;DHT22;19182;41.820;12.808;2023-01-24T00:40:49;4.00;99.90
32839;DHT22;19182;41.820;12.808;2023-01-24T00:43:15;4.00;99.90
32839;DHT22;19182;41.820;12.808;2023-01-24T00:45:41;4.10;99.90
32839;DHT22;19182;41.820;12.808;2023-01-24T00:48:09;4.10;99.90
32839;DHT22;19182;41.820;12.808;2023-01-24T00:50:35;4.10;99.90
32839;DHT22;19182;41.820;12.808;2023-01-24T00:53:01;4.00;99.90
32839;DHT22;19182;41.820;12.808;2023-01-24T00:55:28;4.10;99.90
32839;DHT22;19182;41.820;12.808;2023-01-24T00:57:54;4.20;99.90
32839;DHT22;19182;41.820;12.808;2023-01-24T01:00:21;4.20;99.90
32839;DHT22;19182;41.820;12.808;2023-01-24T01:02:49;4.20;99.90
32839;DHT22;19182;41.820;12.808;2023-01-24T01:05:15;4.10;99.90
32839;DHT22;19182;41.820;12.808;2023-01-24T01:07:41;4.20;99.90
32839;DHT22;19182;41.820;12.808;2023-01-24T01:10:09;4.20;99.90
32839;DHT22;19182;41.820;12.808;2023-01-24T01:12:35;4.30;99.90
32839;DHT22;19182;41.820;12.808;2023-01-24T01:15:01;4.30;99.90
32839;DHT22;19182;41.820;12.808;2023-01-24T01:17:27;4.40;99.90
32839;DHT22;19182;41.820;12.808;2023-01-24T01:19:53;4.30;99.90
32839;DHT22;19182;41.820;12.808;2023-01-24T01:22:21;4.20;99.90
32839;DHT22;19182;41.820;12.808;2023-01-24T01:24:47;4.20;99.90
32839;DHT22;19182;41.820;12.808;2023-01-24T01:27:14;4.30;99.90
32839;DHT22;19182;41.820;12.808;2023-01-24T01:29:40;4.20;99.90
32839;DHT22;19182;41.820;12.808;2023-01-24T01:32:06;4.20;99.90
32839;DHT22;19182;41.820;12.808;2023-01-24T01:34:31;4.20;99.90
32839;DHT22;19182;41.820;12.808;2023-01-24T01:36:57;4.30;99.90
32839;DHT22;19182;41.820;12.808;2023-01-24T01:39:23;4.40;99.90
32839;DHT22;19182;41.820;12.808;2023-01-24T01:41:50;4.30;99.90
32839;DHT22;19182;41.820;12.808;2023-01-24T01:49:44;4.30;99.90
32839;DHT22;19182;41.820;12.808;2023-01-24T01:52:12;4.40;99.90
32839;DHT22;19182;41.820;12.808;2023-01-24T01:54:41;4.50;99.90
32839;DHT22;19182;41.820;12.808;2023-01-24T01:59:53;4.50;99.90
32839;DHT22;19182;41.820;12.808;2023-01-24T02:02:21;4.40;99.90
32839;DHT22;19182;41.820;12.808;2023-01-24T02:04:52;4.40;99.90
32839;DHT22;19182;41.820;12.808;2023-01-24T02:07:24;4.40;99.90
32839;DHT22;19182;41.820;12.808;2023-01-24T02:09:53;4.60;99.90
32839;DHT22;19182;41.820;12.808;2023-01-24T02:12:22;4.60;99.90
32839;DHT22;19182;41.820;12.808;2023-01-24T02:14:53;4.50;99.90
32839;DHT22;19182;41.820;12.808;2023-01-24T02:17:39;4.60;99.90
32839;DHT22;19182;41.820;12.808;2023-01-24T02:20:18;4.60;99.90
32839;DHT22;19182;41.820;12.808;2023-01-24T02:23:24;4.60;99.90
32839;DHT22;19182;41.820;12.808;2023-01-24T02:26:22;4.60;99.90
32839;DHT22;19182;41.820;12.808;2023-01-24T02:28:50;4.40;99.90
32839;DHT22;19182;41.820;12.808;2023-01-24T02:31:18;4.30;99.90
32839;DHT22;19182;41.820;12.808;2023-01-24T02:33:44;4.40;99.90
32839;DHT22;19182;41.820;12.808;2023-01-24T02:36:26;4.50;99.90
32839;DHT22;19182;41.820;12.808;2023-01-24T02:39:06;4.40;99.90
32839;DHT22;19182;41.820;12.808;2023-01-24T02:41:53;4.40;99.90
32839;DHT22;19182;41.820;12.808;2023-01-24T02:44:25;4.40;99.90
32839;DHT22;19182;41.820;12.808;2023-01-24T02:46:52;4.30;99.90
32839;DHT22;19182;41.820;12.808;2023-01-24T02:49:19;4.30;99.90
32839;DHT22;19182;41.820;12.808;2023-01-24T02:51:45;4.30;99.90
32839;DHT22;19182;41.820;12.808;2023-01-24T02:54:29;4.20;99.90
32839;DHT22;19182;41.820;12.808;2023-01-24T02:56:56;4.20;99.90
32839;DHT22;19182;41.820;12.808;2023-01-24T02:59:40;4.10;99.90
32839;DHT22;19182;41.820;12.808;2023-01-24T03:02:07;4.00;99.90
32839;DHT22;19182;41.820;12.808;2023-01-24T03:04:32;4.00;99.90
32839;DHT22;19182;41.820;12.808;2023-01-24T03:06:58;4.00;99.90
32839;DHT22;19182;41.820;12.808;2023-01-24T03:09:24;4.00;99.90
32839;DHT22;19182;41.820;12.808;2023-01-24T03:12:03;4.10;99.90
32839;DHT22;19182;41.820;12.808;2023-01-24T03:14:49;4.00;99.90
32839;DHT22;19182;41.820;12.808;2023-01-24T03:17:33;4.00;99.90
32839;DHT22;19182;41.820;12.808;2023-01-24T03:20:18;4.00;99.90
32839;DHT22;19182;41.820;12.808;2023-01-24T03:23:04;4.00;99.90
32839;DHT22;19182;41.820;12.808;2023-01-24T03:25:53;4.10;99.90
32839;DHT22;19182;41.820;12.808;2023-01-24T03:28:37;1.70;99.90
32839;DHT22;19182;41.820;12.808;2023-01-24T03:31:22;4.00;99.90
32839;DHT22;19182;41.820;12.808;2023-01-24T03:34:06;4.00;99.90
32839;DHT22;19182;41.820;12.808;2023-01-24T03:36:50;4.00;99.90
32839;DHT22;19182;41.820;12.808;2023-01-24T03:39:18;4.00;99.90
32839;DHT22;19182;41.820;12.808;2023-01-24T03:42:03;4.00;99.90
32839;DHT22;19182;41.820;12.808;2023-01-24T03:44:29;3.90;99.90
32839;DHT22;19182;41.820;12.808;2023-01-24T03:49:22;4.10;99.90
32839;DHT22;19182;41.820;12.808;2023-01-24T03:52:06;4.00;99.90
32839;DHT22;19182;41.820;12.808;2023-01-24T03:54:50;4.00;99.90
32839;DHT22;19182;41.820;12.808;2023-01-24T03:57:17;4.00;99.90
32839;DHT22;19182;41.820;12.808;2023-01-24T03:59:44;4.00;99.90
32839;DHT22;19182;41.820;12.808;2023-01-24T04:02:11;4.10;99.90
32839;DHT22;19182;41.820;12.808;2023-01-24T04:04:38;4.10;99.90
32839;DHT22;19182;41.820;12.808;2023-01-24T04:07:23;4.00;99.90
32839;DHT22;19182;41.820;12.808;2023-01-24T04:09:48;4.10;99.90
32839;DHT22;19182;41.820;12.808;2023-01-24T04:12:14;4.20;99.90
32839;DHT22;19182;41.820;12.808;2023-01-24T04:14:39;4.20;99.90
32839;DHT22;19182;41.820;12.808;2023-01-24T04:17:07;4.10;99.90
32839;DHT22;19182;41.820;12.808;2023-01-24T04:19:32;4.20;99.90
32839;DHT22;19182;41.820;12.808;2023-01-24T04:21:58;4.10;99.90
32839;DHT22;19182;41.820;12.808;2023-01-24T04:24:25;3.70;99.90
32839;DHT22;19182;41.820;12.808;2023-01-24T04:26:52;4.00;99.90
32839;DHT22;19182;41.820;12.808;2023-01-24T04:29:18;4.10;99.90
32839;DHT22;19182;41.820;12.808;2023-01-24T04:31:44;4.10;99.90
32839;DHT22;19182;41.820;12.808;2023-01-24T04:34:10;4.00;99.90
32839;DHT22;19182;41.820;12.808;2023-01-24T04:36:36;4.10;99.90
32839;DHT22;19182;41.820;12.808;2023-01-24T04:39:02;3.90;99.90
32839;DHT22;19182;41.820;12.808;2023-01-24T04:41:29;3.90;99.90
32839;DHT22;19182;41.820;12.808;2023-01-24T04:43:55;4.00;99.90
32839;DHT22;19182;41.820;12.808;2023-01-24T04:46:22;4.00;99.90
32839;DHT22;19182;41.820;12.808;2023-01-24T04:48:49;4.00;99.90
32839;DHT22;19182;41.820;12.808;2023-01-24T04:51:15;3.90;99.90
32839;DHT22;19182;41.820;12.808;2023-01-24T04:53:41;3.90;99.90
32839;DHT22;19182;41.820;12.808;2023-01-24T04:56:07;4.00;99.90
32839;DHT22;19182;41.820;12.808;2023-01-24T04:58:33;3.90;99.90
32839;DHT22;19182;41.820;12.808;2023-01-24T05:01:00;3.80;99.90
32839;DHT22;19182;41.820;12.808;2023-01-24T05:03:27;3.80;99.90
32839;DHT22;19182;41.820;12.808;2023-01-24T05:05:53;3.80;99.90
32839;DHT22;19182;41.820;12.808;2023-01-24T05:08:20;3.80;99.90
32839;DHT22;19182;41.820;12.808;2023-01-24T05:10:46;3.70;99.90
32839;DHT22;19182;41.820;12.808;2023-01-24T05:13:12;3.70;99.90
32839;DHT22;19182;41.820;12.808;2023-01-24T05:15:38;3.70;99.90
32839;DHT22;19182;41.820;12.808;2023-01-24T05:18:04;3.70;99.90
32839;DHT22;19182;41.820;12.808;2023-01-24T05:20:30;3.70;99.90
32839;DHT22;19182;41.820;12.808;2023-01-24T05:22:57;3.90;99.90
32839;DHT22;19182;41.820;12.808;2023-01-24T05:25:22;3.90;99.90
32839;DHT22;19182;41.820;12.808;2023-01-24T05:27:48;4.00;99.90
32839;DHT22;19182;41.820;12.808;2023-01-24T05:30:15;4.10;99.90
32839;DHT22;19182;41.820;12.808;2023-01-24T05:32:42;4.20;99.90
32839;DHT22;19182;41.820;12.808;2023-01-24T05:35:08;4.20;99.90
32839;DHT22;19182;41.820;12.808;2023-01-24T05:37:38;4.30;99.90
32839;DHT22;19182;41.820;12.808;2023-01-24T05:40:05;4.20;99.90
32839;DHT22;19182;41.820;12.808;2023-01-24T05:42:31;4.30;99.90
32839;DHT22;19182;41.820;12.808;2023-01-24T05:45:00;4.30;99.90
32839;DHT22;19182;41.820;12.808;2023-01-24T05:47:26;4.40;99.90
32839;DHT22;19182;41.820;12.808;2023-01-24T05:49:53;4.30;99.90
32839;DHT22;19182;41.820;12.808;2023-01-24T05:52:18;4.30;99.90
32839;DHT22;19182;41.820;12.808;2023-01-24T05:54:50;4.50;99.90
32839;DHT22;19182;41.820;12.808;2023-01-24T05:57:16;4.40;99.90
32839;DHT22;19182;41.820;12.808;2023-01-24T05:59:45;4.40;99.90
32839;DHT22;19182;41.820;12.808;2023-01-24T06:02:11;4.40;99.90
32839;DHT22;19182;41.820;12.808;2023-01-24T06:04:36;4.30;99.90
32839;DHT22;19182;41.820;12.808;2023-01-24T06:07:02;6.50;99.90
32839;DHT22;19182;41.820;12.808;2023-01-24T06:09:28;4.30;99.90
32839;DHT22;19182;41.820;12.808;2023-01-24T06:11:57;4.30;99.90
32839;DHT22;19182;41.820;12.808;2023-01-24T06:14:22;4.30;99.90
32839;DHT22;19182;41.820;12.808;2023-01-24T06:16:49;4.30;99.90
32839;DHT22;19182;41.820;12.808;2023-01-24T06:19:15;4.30;99.90
32839;DHT22;19182;41.820;12.808;2023-01-24T06:24:28;4.30;99.90
32839;DHT22;19182;41.820;12.808;2023-01-24T06:26:54;4.40;99.90
32839;DHT22;19182;41.820;12.808;2023-01-24T06:29:21;4.60;99.90
32839;DHT22;19182;41.820;12.808;2023-01-24T06:37:50;4.50;99.90
32839;DHT22;19182;41.820;12.808;2023-01-24T06:40:19;4.50;99.90
32839;DHT22;19182;41.820;12.808;2023-01-24T06:42:46;4.50;99.90
32839;DHT22;19182;41.820;12.808;2023-01-24T06:45:13;4.60;99.90
32839;DHT22;19182;41.820;12.808;2023-01-24T06:47:38;4.60;99.90
32839;DHT22;19182;41.820;12.808;2023-01-24T06:50:05;4.60;99.90
32839;DHT22;19182;41.820;12.808;2023-01-24T06:52:36;4.50;99.90
32839;DHT22;19182;41.820;12.808;2023-01-24T06:55:03;4.60;99.90
32839;DHT22;19182;41.820;12.808;2023-01-24T06:57:29;4.50;99.90
32839;DHT22;19182;41.820;12.808;2023-01-24T06:59:54;4.60;99.90
32839;DHT22;19182;41.820;12.808;2023-01-24T07:02:21;4.60;99.90
32839;DHT22;19182;41.820;12.808;2023-01-24T07:04:46;4.50;99.90
32839;DHT22;19182;41.820;12.808;2023-01-24T07:07:15;4.60;99.90
32839;DHT22;19182;41.820;12.808;2023-01-24T07:09:40;4.50;99.90
32839;DHT22;19182;41.820;12.808;2023-01-24T07:12:06;4.50;99.90
32839;DHT22;19182;41.820;12.808;2023-01-24T07:14:32;4.50;99.90
32839;DHT22;19182;41.820;12.808;2023-01-24T07:16:58;4.60;99.90
32839;DHT22;19182;41.820;12.808;2023-01-24T07:19:25;4.70;99.90
32839;DHT22;19182;41.820;12.808;2023-01-24T07:21:52;4.60;99.90
32839;DHT22;19182;41.820;12.808;2023-01-24T07:24:24;4.70;99.90
32839;DHT22;19182;41.820;12.808;2023-01-24T07:26:50;4.90;99.90
32839;DHT22;19182;41.820;12.808;2023-01-24T07:29:20;5.00;99.90
32839;DHT22;19182;41.820;12.808;2023-01-24T07:31:46;5.00;99.90
32839;DHT22;19182;41.820;12.808;2023-01-24T07:34:17;5.30;99.90
32839;DHT22;19182;41.820;12.808;2023-01-24T07:36:44;5.30;99.90
32839;DHT22;19182;41.820;12.808;2023-01-24T07:39:11;5.40;99.90
32839;DHT22;19182;41.820;12.808;2023-01-24T07:41:37;6.40;99.90
32839;DHT22;19182;41.820;12.808;2023-01-24T07:44:04;7.30;99.90
32839;DHT22;19182;41.820;12.808;2023-01-24T07:46:34;7.90;99.90
32839;DHT22;19182;41.820;12.808;2023-01-24T07:49:02;7.80;99.90
32839;DHT22;19182;41.820;12.808;2023-01-24T07:51:29;7.80;99.90
32839;DHT22;19182;41.820;12.808;2023-01-24T07:53:55;8.20;99.90
32839;DHT22;19182;41.820;12.808;2023-01-24T07:56:20;8.40;99.90
32839;DHT22;19182;41.820;12.808;2023-01-24T07:58:47;8.10;99.90
32839;DHT22;19182;41.820;12.808;2023-01-24T08:01:21;7.90;99.90
32839;DHT22;19182;41.820;12.808;2023-01-24T08:03:47;7.40;99.90
32839;DHT22;19182;41.820;12.808;2023-01-24T08:06:15;6.90;99.90
32839;DHT22;19182;41.820;12.808;2023-01-24T08:08:41;6.90;99.90
32839;DHT22;19182;41.820;12.808;2023-01-24T08:11:06;6.70;99.90
32839;DHT22;19182;41.820;12.808;2023-01-24T08:13:36;6.60;99.90
32839;DHT22;19182;41.820;12.808;2023-01-24T08:16:03;6.70;99.90
32839;DHT22;19182;41.820;12.808;2023-01-24T08:18:29;6.70;99.90
32839;DHT22;19182;41.820;12.808;2023-01-24T08:20:56;6.80;99.90
32839;DHT22;19182;41.820;12.808;2023-01-24T08:23:23;6.80;99.90
32839;DHT22;19182;41.820;12.808;2023-01-24T08:25:49;6.90;99.90
32839;DHT22;19182;41.820;12.808;2023-01-24T08:28:16;6.80;99.90
32839;DHT22;19182;41.820;12.808;2023-01-24T08:30:42;6.90;99.90
32839;DHT22;19182;41.820;12.808;2023-01-24T08:33:09;6.70;99.90
32839;DHT22;19182;41.820;12.808;2023-01-24T08:35:39;6.70;99.90
32839;DHT22;19182;41.820;12.808;2023-01-24T08:38:05;6.90;99.90
32839;DHT22;19182;41.820;12.808;2023-01-24T08:40:31;7.00;99.90
32839;DHT22;19182;41.820;12.808;2023-01-24T08:42:59;7.00;99.90
32839;DHT22;19182;41.820;12.808;2023-01-24T08:45:25;7.00;99.90
32839;DHT22;19182;41.820;12.808;2023-01-24T08:47:52;7.10;99.90
32839;DHT22;19182;41.820;12.808;2023-01-24T08:50:18;7.10;99.90
32839;DHT22;19182;41.820;12.808;2023-01-24T08:52:46;7.20;99.90
32839;DHT22;19182;41.820;12.808;2023-01-24T08:55:12;8.10;99.90
32839;DHT22;19182;41.820;12.808;2023-01-24T08:57:39;9.80;99.90
32839;DHT22;19182;41.820;12.808;2023-01-24T09:00:07;11.00;99.90
32839;DHT22;19182;41.820;12.808;2023-01-24T09:02:33;11.90;99.90
32839;DHT22;19182;41.820;12.808;2023-01-24T09:05:05;11.20;99.90
32839;DHT22;19182;41.820;12.808;2023-01-24T09:07:31;11.10;99.90
32839;DHT22;19182;41.820;12.808;2023-01-24T09:09:57;11.70;99.90
32839;DHT22;19182;41.820;12.808;2023-01-24T09:12:23;13.40;99.90
32839;DHT22;19182;41.820;12.808;2023-01-24T09:14:49;14.70;99.90
32839;DHT22;19182;41.820;12.808;2023-01-24T09:17:16;15.10;99.90
32839;DHT22;19182;41.820;12.808;2023-01-24T09:19:43;14.70;99.90
32839;DHT22;19182;41.820;12.808;2023-01-24T09:22:09;13.40;99.90
32839;DHT22;19182;41.820;12.808;2023-01-24T09:24:36;12.00;99.90
32839;DHT22;19182;41.820;12.808;2023-01-24T09:27:03;11.00;99.90
32839;DHT22;19182;41.820;12.808;2023-01-24T09:29:28;11.10;99.90
32839;DHT22;19182;41.820;12.808;2023-01-24T09:31:54;11.30;99.90
32839;DHT22;19182;41.820;12.808;2023-01-24T09:34:20;11.90;99.90
32839;DHT22;19182;41.820;12.808;2023-01-24T09:36:49;12.70;99.90
32839;DHT22;19182;41.820;12.808;2023-01-24T09:39:16;13.80;99.90
32839;DHT22;19182;41.820;12.808;2023-01-24T09:45:12;14.80;99.90
32839;DHT22;19182;41.820;12.808;2023-01-24T09:47:51;14.90;99.90
32839;DHT22;19182;41.820;12.808;2023-01-24T09:50:40;15.90;99.90
32839;DHT22;19182;41.820;12.808;2023-01-24T09:53:04;17.00;99.90
32839;DHT22;19182;41.820;12.808;2023-01-24T09:55:41;17.20;99.90
32839;DHT22;19182;41.820;12.808;2023-01-24T09:58:31;18.50;99.90
32839;DHT22;19182;41.820;12.808;2023-01-24T10:01:07;19.50;99.90
32839;DHT22;19182;41.820;12.808;2023-01-24T10:03:34;19.50;99.90
32839;DHT22;19182;41.820;12.808;2023-01-24T10:11:33;21.20;96.90
32839;DHT22;19182;41.820;12.808;2023-01-24T10:20:19;20.00;96.50
32839;DHT22;19182;41.820;12.808;2023-01-24T10:25:24;20.80;96.10
32839;DHT22;19182;41.820;12.808;2023-01-24T10:27:53;21.60;93.90
32839;DHT22;19182;41.820;12.808;2023-01-24T10:30:41;23.30;90.20
32839;DHT22;19182;41.820;12.808;2023-01-24T10:33:18;23.00;85.70
32839;DHT22;19182;41.820;12.808;2023-01-24T10:36:08;23.50;82.00
32839;DHT22;19182;41.820;12.808;2023-01-24T10:38:42;23.00;80.50
32839;DHT22;19182;41.820;12.808;2023-01-24T10:41:16;23.80;78.40
32839;DHT22;19182;41.820;12.808;2023-01-24T10:43:49;23.30;79.70
32839;DHT22;19182;41.820;12.808;2023-01-24T10:46:48;23.60;80.60
32839;DHT22;19182;41.820;12.808;2023-01-24T10:49:25;24.00;74.70
32839;DHT22;19182;41.820;12.808;2023-01-24T10:52:11;24.20;72.30
32839;DHT22;19182;41.820;12.808;2023-01-24T10:57:47;23.60;73.00
32839;DHT22;19182;41.820;12.808;2023-01-24T11:00:40;24.00;73.40
32839;DHT22;19182;41.820;12.808;2023-01-24T11:03:23;24.40;70.40
32839;DHT22;19182;41.820;12.808;2023-01-24T11:05:52;23.80;70.50
32839;DHT22;19182;41.820;12.808;2023-01-24T11:08:25;23.60;71.10
32839;DHT22;19182;41.820;12.808;2023-01-24T11:10:55;23.90;70.80
32839;DHT22;19182;41.820;12.808;2023-01-24T11:16:00;22.70;72.20
32839;DHT22;19182;41.820;12.808;2023-01-24T11:18:28;23.00;72.20
32839;DHT22;19182;41.820;12.808;2023-01-24T11:21:06;23.30;71.90
32839;DHT22;19182;41.820;12.808;2023-01-24T11:23:33;22.90;72.10
32839;DHT22;19182;41.820;12.808;2023-01-24T11:26:01;23.60;72.30
32839;DHT22;19182;41.820;12.808;2023-01-24T11:28:29;22.90;70.30
32839;DHT22;19182;41.820;12.808;2023-01-24T11:30:58;21.20;73.90
32839;DHT22;19182;41.820;12.808;2023-01-24T11:36:11;17.70;84.70
32839;DHT22;19182;41.820;12.808;2023-01-24T11:38:44;16.40;91.30
32839;DHT22;19182;41.820;12.808;2023-01-24T11:41:22;15.40;93.40
32839;DHT22;19182;41.820;12.808;2023-01-24T11:49:05;13.50;99.90
32839;DHT22;19182;41.820;12.808;2023-01-24T11:54:51;12.90;99.90
32839;DHT22;19182;41.820;12.808;2023-01-24T11:57:43;12.90;99.90
32839;DHT22;19182;41.820;12.808;2023-01-24T12:06:06;14.70;99.90
32839;DHT22;19182;41.820;12.808;2023-01-24T12:11:27;17.80;99.80
32839;DHT22;19182;41.820;12.808;2023-01-24T12:20:06;17.80;99.90
32839;DHT22;19182;41.820;12.808;2023-01-24T12:22:39;17.90;99.90
32839;DHT22;19182;41.820;12.808;2023-01-24T12:25:33;17.50;99.90
32839;DHT22;19182;41.820;12.808;2023-01-24T12:28:02;17.60;99.90
32839;DHT22;19182;41.820;12.808;2023-01-24T12:30:42;17.20;99.90
32839;DHT22;19182;41.820;12.808;2023-01-24T12:33:28;16.70;99.90
32839;DHT22;19182;41.820;12.808;2023-01-24T12:36:12;16.70;99.90
32839;DHT22;19182;41.820;12.808;2023-01-24T12:38:46;16.50;99.90
32839;DHT22;19182;41.820;12.808;2023-01-24T12:41:29;16.30;99.90
32839;DHT22;19182;41.820;12.808;2023-01-24T12:44:22;16.00;99.90
32839;DHT22;19182;41.820;12.808;2023-01-24T12:49:55;15.50;99.90
32839;DHT22;19182;41.820;12.808;2023-01-24T13:03:50;13.80;99.90
32839;DHT22;19182;41.820;12.808;2023-01-24T13:09:00;13.70;99.90
32839;DHT22;19182;41.820;12.808;2023-01-24T13:11:28;14.10;99.90
32839;DHT22;19182;41.820;12.808;2023-01-24T13:14:37;14.30;99.90
32839;DHT22;19182;41.820;12.808;2023-01-24T13:28:38;13.90;99.90
32839;DHT22;19182;41.820;12.808;2023-01-24T13:31:17;13.90;99.90
32839;DHT22;19182;41.820;12.808;2023-01-24T13:33:54;13.80;99.90
32839;DHT22;19182;41.820;12.808;2023-01-24T13:36:28;13.60;99.90
32839;DHT22;19182;41.820;12.808;2023-01-24T13:38:56;13.50;99.90
32839;DHT22;19182;41.820;12.808;2023-01-24T13:51:53;12.80;99.90
32839;DHT22;19182;41.820;12.808;2023-01-24T13:57:21;12.50;99.90
32839;DHT22;19182;41.820;12.808;2023-01-24T14:00:19;12.30;99.90
32839;DHT22;19182;41.820;12.808;2023-01-24T14:07:56;12.10;99.90
32839;DHT22;19182;41.820;12.808;2023-01-24T14:10:38;12.10;99.90
32839;DHT22;19182;41.820;12.808;2023-01-24T14:13:05;12.00;99.90
32839;DHT22;19182;41.820;12.808;2023-01-24T14:15:48;12.00;99.90
32839;DHT22;19182;41.820;12.808;2023-01-24T14:18:46;12.00;99.90
32839;DHT22;19182;41.820;12.808;2023-01-24T14:21:20;12.00;99.90
32839;DHT22;19182;41.820;12.808;2023-01-24T14:23:59;11.90;99.90
32839;DHT22;19182;41.820;12.808;2023-01-24T14:26:27;11.80;99.90
32839;DHT22;19182;41.820;12.808;2023-01-24T14:28:59;11.70;99.90
32839;DHT22;19182;41.820;12.808;2023-01-24T14:31:46;11.60;99.90
32839;DHT22;19182;41.820;12.808;2023-01-24T14:34:33;11.50;99.90
32839;DHT22;19182;41.820;12.808;2023-01-24T14:37:09;11.40;99.90
32839;DHT22;19182;41.820;12.808;2023-01-24T14:39:35;9.00;99.90
32839;DHT22;19182;41.820;12.808;2023-01-24T14:42:16;11.30;99.90
32839;DHT22;19182;41.820;12.808;2023-01-24T14:47:23;11.20;99.90
32839;DHT22;19182;41.820;12.808;2023-01-24T14:49:52;11.20;99.90
32839;DHT22;19182;41.820;12.808;2023-01-24T14:52:23;11.20;99.90
32839;DHT22;19182;41.820;12.808;2023-01-24T14:54:56;11.10;99.90
32839;DHT22;19182;41.820;12.808;2023-01-24T14:57:27;11.10;99.90
32839;DHT22;19182;41.820;12.808;2023-01-24T15:02:58;10.80;99.90
32839;DHT22;19182;41.820;12.808;2023-01-24T15:05:33;10.60;99.90
32839;DHT22;19182;41.820;12.808;2023-01-24T15:08:02;10.60;99.90
32839;DHT22;19182;41.820;12.808;2023-01-24T15:10:36;10.50;99.90
32839;DHT22;19182;41.820;12.808;2023-01-24T15:13:05;10.40;99.90
32839;DHT22;19182;41.820;12.808;2023-01-24T15:15:33;10.30;99.90
32839;DHT22;19182;41.820;12.808;2023-01-24T15:18:19;10.20;99.90
32839;DHT22;19182;41.820;12.808;2023-01-24T15:20:49;10.10;99.90
32839;DHT22;19182;41.820;12.808;2023-01-24T15:23:20;9.90;99.90
32839;DHT22;19182;41.820;12.808;2023-01-24T15:25:46;9.80;99.90
32839;DHT22;19182;41.820;12.808;2023-01-24T15:28:28;9.70;99.90
32839;DHT22;19182;41.820;12.808;2023-01-24T15:30:56;9.60;99.90
32839;DHT22;19182;41.820;12.808;2023-01-24T15:33:23;9.50;99.90
32839;DHT22;19182;41.820;12.808;2023-01-24T15:35:50;9.50;99.90
32839;DHT22;19182;41.820;12.808;2023-01-24T15:38:25;9.50;99.90
32839;DHT22;19182;41.820;12.808;2023-01-24T15:51:37;9.00;99.90
32839;DHT22;19182;41.820;12.808;2023-01-24T15:54:10;8.80;99.90
32839;DHT22;19182;41.820;12.808;2023-01-24T15:56:37;8.70;99.90
32839;DHT22;19182;41.820;12.808;2023-01-24T15:59:13;8.60;99.90
32839;DHT22;19182;41.820;12.808;2023-01-24T16:01:39;8.50;99.90
32839;DHT22;19182;41.820;12.808;2023-01-24T16:04:12;8.40;99.90
32839;DHT22;19182;41.820;12.808;2023-01-24T16:06:39;8.30;99.90
32839;DHT22;19182;41.820;12.808;2023-01-24T16:09:05;8.00;99.90
32839;DHT22;19182;41.820;12.808;2023-01-24T16:11:32;7.80;99.90
32839;DHT22;19182;41.820;12.808;2023-01-24T16:13:58;7.40;99.90
32839;DHT22;19182;41.820;12.808;2023-01-24T16:16:24;7.30;99.90
32839;DHT22;19182;41.820;12.808;2023-01-24T16:18:50;7.20;99.90
32839;DHT22;19182;41.820;12.808;2023-01-24T16:21:16;7.00;99.90
32839;DHT22;19182;41.820;12.808;2023-01-24T16:23:41;6.80;99.90
32839;DHT22;19182;41.820;12.808;2023-01-24T16:26:29;6.80;99.90
32839;DHT22;19182;41.820;12.808;2023-01-24T16:28:55;6.80;99.90
32839;DHT22;19182;41.820;12.808;2023-01-24T16:31:21;6.60;99.90
32839;DHT22;19182;41.820;12.808;2023-01-24T16:33:46;6.70;99.90
32839;DHT22;19182;41.820;12.808;2023-01-24T16:36:13;6.40;99.90
32839;DHT22;19182;41.820;12.808;2023-01-24T16:38:41;6.40;99.90
32839;DHT22;19182;41.820;12.808;2023-01-24T16:41:09;6.20;99.90
32839;DHT22;19182;41.820;12.808;2023-01-24T16:43:35;6.20;99.90
32839;DHT22;19182;41.820;12.808;2023-01-24T16:46:02;6.10;99.90
32839;DHT22;19182;41.820;12.808;2023-01-24T16:48:30;3.60;99.90
32839;DHT22;19182;41.820;12.808;2023-01-24T16:50:58;6.20;99.90
32839;DHT22;19182;41.820;12.808;2023-01-24T16:53:25;6.30;99.90
32839;DHT22;19182;41.820;12.808;2023-01-24T16:55:57;6.20;99.90
32839;DHT22;19182;41.820;12.808;2023-01-24T16:58:23;6.10;99.90
32839;DHT22;19182;41.820;12.808;2023-01-24T17:00:48;5.80;99.90
32839;DHT22;19182;41.820;12.808;2023-01-24T17:03:15;5.70;99.90
32839;DHT22;19182;41.820;12.808;2023-01-24T17:05:41;5.60;99.90
32839;DHT22;19182;41.820;12.808;2023-01-24T17:08:10;5.70;99.90
32839;DHT22;19182;41.820;12.808;2023-01-24T17:10:37;5.60;99.90
32839;DHT22;19182;41.820;12.808;2023-01-24T17:13:04;5.60;99.90
32839;DHT22;19182;41.820;12.808;2023-01-24T17:15:37;5.50;99.90
32839;DHT22;19182;41.820;12.808;2023-01-24T17:18:04;5.60;99.90
32839;DHT22;19182;41.820;12.808;2023-01-24T17:20:32;5.70;99.90
32839;DHT22;19182;41.820;12.808;2023-01-24T17:22:58;5.60;99.90
32839;DHT22;19182;41.820;12.808;2023-01-24T17:25:31;5.20;99.90
32839;DHT22;19182;41.820;12.808;2023-01-24T17:27:56;5.10;99.90
32839;DHT22;19182;41.820;12.808;2023-01-24T17:30:22;5.10;99.90
32839;DHT22;19182;41.820;12.808;2023-01-24T17:32:48;5.20;99.90
32839;DHT22;19182;41.820;12.808;2023-01-24T17:35:17;5.10;99.90
32839;DHT22;19182;41.820;12.808;2023-01-24T17:37:43;4.90;99.90
32839;DHT22;19182;41.820;12.808;2023-01-24T17:40:09;4.80;99.90
32839;DHT22;19182;41.820;12.808;2023-01-24T17:42:37;4.70;99.90
32839;DHT22;19182;41.820;12.808;2023-01-24T17:45:04;4.70;99.90
32839;DHT22;19182;41.820;12.808;2023-01-24T17:47:31;4.70;99.90
32839;DHT22;19182;41.820;12.808;2023-01-24T17:49:57;4.80;99.90
32839;DHT22;19182;41.820;12.808;2023-01-24T17:52:25;4.70;99.90
32839;DHT22;19182;41.820;12.808;2023-01-24T17:54:51;4.90;99.90
32839;DHT22;19182;41.820;12.808;2023-01-24T17:57:19;4.90;99.90
32839;DHT22;19182;41.820;12.808;2023-01-24T17:59:45;5.00;99.90